Time;durP1;ratioP1;P1;durP2;ratioP2;P2;SDS_P1;SDS_P2;PMS_P1;PMS_P2;Temp;Humidity;BMP_temperature;BMP_pressure;BME280_temperature;BME280_humidity;BME280_pressure;Samples;Min_cycle;Max_cycle;Signal;HPM_P1;HPM_P2
2021/08/08 00:01:15;;;;;;;5.23;2.20;;;;;;;14.57;100.00;48432.25;5063396;28;20770;-67
2021/08/08 00:03:41;;;;;;;4.77;2.43;;;;;;;14.49;100.00;48757.09;5063544;28;20071;-67
2021/08/08 00:06:07;;;;;;;4.43;2.10;;;;;;;14.41;100.00;54394.25;5064255;28;20066;-67
2021/08/08 00:08:33;;;;;;;4.87;2.27;;;;;;;14.30;100.00;61367.56;5063408;28;20112;-67
2021/08/08 00:10:59;;;;;;;6.53;2.60;;;;;;;14.27;100.00;64362.22;5063526;28;20029;-67
2021/08/08 00:13:25;;;;;;;5.70;2.50;;;;;;;14.25;100.00;66026.25;5063771;28;20465;-67
2021/08/08 00:15:51;;;;;;;6.30;2.67;;;;;;;14.20;100.00;68020.91;5064172;28;20108;-67
2021/08/08 00:18:17;;;;;;;5.43;2.43;;;;;;;14.13;100.00;71348.25;5063738;28;20657;-67
2021/08/08 00:20:42;;;;;;;5.77;2.53;;;;;;;14.04;100.00;76013.22;5063632;28;20412;-66
2021/08/08 00:23:08;;;;;;;5.80;2.67;;;;;;;14.03;100.00;78018.31;5062664;28;20111;-67
2021/08/08 00:25:34;;;;;;;9.17;2.57;;;;;;;14.13;100.00;75356.06;5063567;28;20040;-67
2021/08/08 00:27:59;;;;;;;5.63;2.57;;;;;;;14.30;100.00;65698.09;5063508;28;20031;-67
2021/08/08 00:30:25;;;;;;;6.43;2.43;;;;;;;14.44;100.00;44442.84;5063003;28;20028;-67
2021/08/08 00:32:50;;;;;;;6.40;2.40;;;;;;;14.49;100.00;29239.19;5067042;28;20474;-66
2021/08/08 00:35:16;;;;;;;5.10;2.37;;;;;;;14.59;100.00;19362.13;5063583;28;20033;-67
2021/08/08 00:37:44;;;;;;;5.30;2.10;;;;;;;14.60;100.00;4921.06;5063058;28;20089;-67
2021/08/08 00:40:14;;;;;;;3.43;1.70;;;;;;;14.61;100.00;6886.72;5062511;28;20032;-67
2021/08/08 00:42:42;;;;;;;6.07;1.80;;;;;;;14.59;100.00;2629.22;5063605;28;20029;-67
2021/08/08 00:45:08;;;;;;;3.93;1.60;;;;;;;14.68;100.00;-12310.06;5063080;28;20050;-67
2021/08/08 00:47:34;;;;;;;6.67;1.87;;;;;;;14.63;100.00;-13993.91;5062804;28;20032;-68
2021/08/08 00:50:00;;;;;;;4.53;1.70;;;;;;;14.59;100.00;-13535.41;5062643;28;20469;-67
2021/08/08 00:52:26;;;;;;;4.27;2.33;;;;;;;14.58;100.00;-12031.34;5054386;28;20055;-67
2021/08/08 00:54:55;;;;;;;3.50;1.77;;;;;;;14.49;100.00;-315.34;5071654;28;20040;-67
2021/08/08 00:57:21;;;;;;;3.77;1.93;;;;;;;14.50;100.00;4264.78;5063188;28;20032;-67
2021/08/08 00:59:46;;;;;;;3.97;2.07;;;;;;;14.54;100.00;665.91;5062696;28;20070;-66
2021/08/08 01:02:13;;;;;;;4.47;1.90;;;;;;;14.48;100.00;2955.38;5063089;28;20020;-67
2021/08/08 01:04:47;;;;;;;5.57;1.90;;;;;;;14.45;100.00;6884.06;5093091;22;20303;-66
2021/08/08 01:07:20;;;;;;;4.83;1.77;;;;;;;14.28;100.00;24285.44;5079419;28;20117;-68
2021/08/08 01:09:52;;;;;;;6.10;2.20;;;;;;;14.11;100.00;40114.53;5065636;28;20261;-68
2021/08/08 01:12:22;;;;;;;5.40;2.03;;;;;;;13.96;100.00;52692.22;5071860;28;20036;-68
2021/08/08 01:14:50;;;;;;;5.60;2.00;;;;;;;13.93;100.00;56673.59;5064792;28;20059;-68
2021/08/08 01:17:16;;;;;;;5.70;2.20;;;;;;;14.04;100.00;51703.59;5062591;28;20042;-68
2021/08/08 01:19:51;;;;;;;4.30;1.93;;;;;;;14.08;100.00;45077.34;5076577;28;20023;-68
2021/08/08 01:22:19;;;;;;;5.10;2.03;;;;;;;14.10;100.00;39452.47;5078707;28;20023;-68
2021/08/08 01:24:45;;;;;;;5.33;2.17;;;;;;;14.11;100.00;36809.00;5073154;28;20274;-68
2021/08/08 01:27:12;;;;;;;5.30;1.93;;;;;;;14.01;100.00;39446.75;5078429;28;20285;-68
2021/08/08 01:29:38;;;;;;;5.73;2.30;;;;;;;13.98;100.00;43745.00;5079540;28;20213;-68
2021/08/08 01:32:04;;;;;;;4.60;1.87;;;;;;;13.94;100.00;47053.38;5066389;28;20308;-68
2021/08/08 01:34:29;;;;;;;6.87;2.30;;;;;;;13.86;100.00;49366.31;5062482;28;20559;-68
2021/08/08 01:36:55;;;;;;;6.07;2.23;;;;;;;13.77;100.00;56990.28;5068844;28;20032;-68
2021/08/08 01:39:22;;;;;;;8.10;2.23;;;;;;;13.73;100.00;59644.69;5067972;28;20264;-68
2021/08/08 01:41:58;;;;;;;5.60;2.20;;;;;;;13.77;100.00;59981.88;5077878;28;20066;-68
2021/08/08 01:44:27;;;;;;;4.53;2.00;;;;;;;13.81;100.00;62313.94;5079228;28;20040;-68
2021/08/08 01:46:56;;;;;;;5.90;2.60;;;;;;;13.84;100.00;63980.81;5075631;28;20182;-68
2021/08/08 01:49:24;;;;;;;4.97;2.00;;;;;;;13.91;100.00;64988.22;5064693;28;20073;-68
2021/08/08 01:51:52;;;;;;;8.30;2.63;;;;;;;13.94;100.00;61662.06;5064102;28;20019;-68
2021/08/08 01:54:18;;;;;;;5.33;2.30;;;;;;;13.97;100.00;59669.84;5076976;28;20273;-68
2021/08/08 01:56:45;;;;;;;6.93;2.30;;;;;;;13.93;100.00;60330.81;5067564;28;20023;-68
2021/08/08 01:59:10;;;;;;;5.80;2.13;;;;;;;13.92;100.00;62991.59;5059632;28;20017;-68
2021/08/08 02:01:36;;;;;;;6.70;2.13;;;;;;;13.96;100.00;62996.03;5060410;28;20140;-68
2021/08/08 02:04:01;;;;;;;5.87;2.50;;;;;;;13.99;100.00;64664.25;5076949;28;20265;-68
2021/08/08 02:06:27;;;;;;;9.07;2.93;;;;;;;14.03;100.00;65001.31;5079139;28;20073;-68
2021/08/08 02:08:52;;;;;;;7.90;2.60;;;;;;;14.07;100.00;67339.25;5070063;28;20044;-68
2021/08/08 02:11:18;;;;;;;4.63;2.50;;;;;;;14.08;100.00;67339.84;5075376;28;20268;-68
2021/08/08 02:13:43;;;;;;;7.00;3.10;;;;;;;14.12;100.00;69344.91;5070591;28;20484;-68
2021/08/08 02:16:09;;;;;;;6.30;3.03;;;;;;;14.13;100.00;68345.47;5075202;28;20034;-68
2021/08/08 02:18:34;;;;;;;5.23;3.10;;;;;;;14.13;100.00;65679.13;5078494;28;20115;-68
2021/08/08 02:21:00;;;;;;;6.43;3.03;;;;;;;14.19;100.00;62687.34;5078792;28;20035;-68
2021/08/08 02:23:25;;;;;;;8.10;2.60;;;;;;;14.29;100.00;54714.97;5074066;28;20021;-68
2021/08/08 02:25:51;;;;;;;5.10;2.30;;;;;;;14.45;100.00;48753.66;5078680;28;20609;-68
2021/08/08 02:28:17;;;;;;;3.50;1.97;;;;;;;14.53;100.00;37167.69;5078977;28;20400;-68
2021/08/08 02:30:43;;;;;;;5.37;2.07;;;;;;;14.64;100.00;27927.84;5078713;28;20295;-68
2021/08/08 02:33:09;;;;;;;4.97;2.10;;;;;;;14.63;100.00;30236.69;5079621;28;20033;-67
2021/08/08 02:35:35;;;;;;;6.67;2.03;;;;;;;14.75;100.00;22989.09;5078934;28;20160;-68
2021/08/08 02:38:00;;;;;;;4.17;1.73;;;;;;;14.79;100.00;20356.56;5082471;28;20032;-68
2021/08/08 02:40:26;;;;;;;9.90;2.03;;;;;;;14.85;100.00;19700.66;5082517;28;20020;-68
2021/08/08 02:42:51;;;;;;;4.33;1.80;;;;;;;14.89;100.00;18057.00;5081930;28;20039;-68
2021/08/08 02:45:17;;;;;;;4.90;1.90;;;;;;;14.89;100.00;19373.28;5082380;28;20492;-68
2021/08/08 02:47:42;;;;;;;6.67;2.00;;;;;;;14.87;100.00;25301.19;5083227;28;20027;-68
2021/08/08 02:50:10;;;;;;;5.10;1.80;;;;;;;14.85;100.00;29258.44;5081620;28;20168;-68
2021/08/08 02:52:38;;;;;;;3.67;2.00;;;;;;;14.90;100.00;23983.94;5082670;28;20119;-68
2021/08/08 02:55:03;;;;;;;4.00;1.77;;;;;;;14.97;100.00;17730.88;5081476;28;20271;-68
2021/08/08 02:57:29;;;;;;;6.13;2.00;;;;;;;14.99;100.00;17731.41;5082271;28;20024;-68
2021/08/08 02:59:54;;;;;;;4.30;1.70;;;;;;;14.99;100.00;22011.03;5070824;28;20467;-68
2021/08/08 03:02:20;;;;;;;3.47;1.83;;;;;;;15.14;100.00;7223.75;5082334;28;20292;-68
2021/08/08 03:04:45;;;;;;;5.53;1.80;;;;;;;15.22;100.00;-14940.75;5081469;28;20043;-67
2021/08/08 03:07:11;;;;;;;3.83;1.90;;;;;;;15.25;100.00;-11242.88;5081691;28;20407;-68
2021/08/08 03:09:36;;;;;;;7.70;2.20;;;;;;;15.27;100.00;-13630.31;5073151;28;20028;-67
2021/08/08 03:12:02;;;;;;;4.10;1.97;;;;;;;15.19;100.00;7552.69;5081980;28;20016;-68
2021/08/08 03:14:27;;;;;;;4.83;2.03;;;;;;;15.06;100.00;30260.16;5081002;28;20028;-67
2021/08/08 03:16:53;;;;;;;4.60;2.23;;;;;;;14.93;100.00;48462.38;5081833;28;20284;-68
2021/08/08 03:19:18;;;;;;;4.20;2.30;;;;;;;14.87;100.00;58763.22;5071223;28;20020;-67
2021/08/08 03:21:44;;;;;;;6.27;2.50;;;;;;;14.84;100.00;61424.69;5081883;28;20100;-69
2021/08/08 03:24:10;;;;;;;7.03;2.63;;;;;;;14.92;100.00;55107.53;5073673;28;20111;-68
2021/08/08 03:26:36;;;;;;;7.30;2.60;;;;;;;14.91;100.00;56104.56;5081557;28;20250;-69
2021/08/08 03:29:02;;;;;;;6.03;2.67;;;;;;;14.88;100.00;61095.78;5072687;28;20040;-68
2021/08/08 03:31:28;;;;;;;6.10;3.00;;;;;;;14.91;100.00;58434.41;5081496;28;20027;-67
2021/08/08 03:33:54;;;;;;;7.50;3.10;;;;;;;14.94;100.00;55442.59;5081280;28;20373;-68
2021/08/08 03:36:21;;;;;;;10.07;3.63;;;;;;;14.92;100.00;60100.59;5080161;28;20153;-68
2021/08/08 03:38:46;;;;;;;6.50;2.80;;;;;;;14.88;100.00;64096.41;5080936;28;20111;-68
2021/08/08 03:41:12;;;;;;;6.93;2.90;;;;;;;14.88;100.00;62762.16;5081593;28;20112;-67
2021/08/08 03:43:37;;;;;;;6.40;3.40;;;;;;;14.90;100.00;63097.75;5080625;28;20525;-68
2021/08/08 03:46:03;;;;;;;6.40;3.40;;;;;;;14.93;100.00;61767.66;5077575;28;20157;-67
2021/08/08 03:48:28;;;;;;;8.10;2.97;;;;;;;14.91;100.00;63099.41;5078861;28;20032;-68
2021/08/08 03:50:54;;;;;;;6.93;3.43;;;;;;;14.93;100.00;61767.66;5080986;28;20016;-67
2021/08/08 03:53:19;;;;;;;5.90;3.23;;;;;;;14.91;100.00;64766.28;5080595;28;20412;-67
2021/08/08 03:55:45;;;;;;;7.53;4.00;;;;;;;14.88;100.00;66764.78;5081507;28;20020;-68
2021/08/08 03:58:10;;;;;;;6.53;3.33;;;;;;;14.88;100.00;64095.84;5080398;28;20036;-68
2021/08/08 04:00:36;;;;;;;7.03;3.43;;;;;;;14.87;100.00;64428.78;5081574;28;20020;-68
2021/08/08 04:03:01;;;;;;;5.90;3.33;;;;;;;14.88;100.00;64429.34;5080239;28;20476;-68
2021/08/08 04:05:26;;;;;;;7.77;3.17;;;;;;;14.87;100.00;66430.47;5081188;28;20265;-67
2021/08/08 04:07:52;;;;;;;7.97;3.50;;;;;;;14.85;100.00;66093.88;5079634;28;20082;-67
2021/08/08 04:10:18;;;;;;;6.67;3.33;;;;;;;14.91;100.00;62765.47;5068796;28;20027;-67
2021/08/08 04:12:43;;;;;;;5.93;3.50;;;;;;;14.94;100.00;54777.31;5080448;28;20487;-68
2021/08/08 04:15:09;;;;;;;5.90;3.37;;;;;;;14.98;100.00;51788.38;5079409;28;20268;-68
2021/08/08 04:17:35;;;;;;;7.73;3.37;;;;;;;14.94;100.00;54444.72;5080267;28;20119;-67
2021/08/08 04:20:00;;;;;;;7.43;3.63;;;;;;;14.95;100.00;56441.75;5071726;28;20572;-67
2021/08/08 04:22:26;;;;;;;7.30;3.20;;;;;;;14.95;100.00;59104.50;5080629;28;20071;-67
2021/08/08 04:24:51;;;;;;;9.00;3.97;;;;;;;14.91;100.00;61432.25;5075903;28;20032;-68
2021/08/08 04:27:18;;;;;;;7.23;3.60;;;;;;;14.85;100.00;65093.59;5080536;28;20047;-68
2021/08/08 04:29:44;;;;;;;7.57;4.30;;;;;;;14.80;100.00;72433.09;5077877;28;20028;-69
2021/08/08 04:32:10;;;;;;;6.97;3.83;;;;;;;14.78;100.00;74771.06;5080399;28;20439;-68
2021/08/08 04:34:36;;;;;;;10.93;4.27;;;;;;;14.76;100.00;74768.47;5073247;28;20027;-67
2021/08/08 04:37:02;;;;;;;9.70;4.07;;;;;;;14.82;100.00;73104.22;5080232;28;20040;-67
2021/08/08 04:39:27;;;;;;;6.27;3.87;;;;;;;14.81;100.00;74440.50;5074408;28;20525;-68
2021/08/08 04:41:53;;;;;;;9.83;4.10;;;;;;;14.76;100.00;77445.88;5077162;28;20333;-68
2021/08/08 04:44:19;;;;;;;10.77;4.73;;;;;;;14.79;100.00;77784.72;5079079;28;20128;-69
2021/08/08 04:46:45;;;;;;;9.33;4.80;;;;;;;14.83;100.00;75781.25;5079622;28;20028;-68
2021/08/08 04:49:11;;;;;;;8.43;4.23;;;;;;;14.87;100.00;73445.59;5078957;28;20334;-69
2021/08/08 04:51:36;;;;;;;8.40;4.07;;;;;;;14.93;100.00;67438.81;5078650;28;20024;-68
2021/08/08 04:54:02;;;;;;;9.00;3.83;;;;;;;14.93;100.00;66437.44;5070966;28;20039;-68
2021/08/08 04:56:27;;;;;;;6.97;4.07;;;;;;;14.96;100.00;65105.56;5080043;28;20028;-68
2021/08/08 04:58:53;;;;;;;7.27;4.17;;;;;;;14.98;100.00;64107.06;5079149;28;20327;-68
2021/08/08 05:01:18;;;;;;;6.97;3.80;;;;;;;15.05;100.00;62114.03;5079877;28;20119;-67
2021/08/08 05:03:44;;;;;;;8.50;3.83;;;;;;;15.07;100.00;60116.44;5078710;28;20200;-68
2021/08/08 05:06:10;;;;;;;7.73;3.53;;;;;;;15.16;100.00;54465.41;5079358;28;20410;-67
2021/08/08 05:08:35;;;;;;;6.23;3.07;;;;;;;15.15;100.00;49477.78;5072975;28;20665;-68
2021/08/08 05:11:01;;;;;;;5.03;2.73;;;;;;;15.11;100.00;52797.66;5073096;28;20212;-68
2021/08/08 05:15:55;;;;;;;6.30;3.27;;;;;;;15.06;100.00;62115.13;5079122;28;20131;-68
2021/08/08 05:18:21;;;;;;;6.60;3.10;;;;;;;15.06;100.00;63448.94;5075243;28;20127;-69
2021/08/08 05:20:46;;;;;;;9.73;3.10;;;;;;;15.10;100.00;62786.38;5078986;28;20032;-68
2021/08/08 05:23:12;;;;;;;7.57;3.40;;;;;;;15.12;100.00;56125.31;5075993;28;20040;-68
2021/08/08 05:25:38;;;;;;;5.03;2.47;;;;;;;15.20;100.00;46493.44;5076469;28;20043;-68
2021/08/08 05:28:03;;;;;;;5.20;2.50;;;;;;;15.28;100.00;28950.94;5078438;28;20027;-67
2021/08/08 05:30:29;;;;;;;7.43;3.23;;;;;;;15.28;100.00;26639.78;5078541;28;20055;-67
2021/08/08 05:32:54;;;;;;;8.30;2.53;;;;;;;15.21;100.00;39862.03;5078245;28;20020;-68
2021/08/08 05:35:20;;;;;;;11.90;3.40;;;;;;;15.28;100.00;34238.69;5079144;28;20028;-67
2021/08/08 05:37:45;;;;;;;6.90;2.97;;;;;;;15.20;100.00;38867.63;5079294;28;20024;-67
2021/08/08 05:40:11;;;;;;;8.43;3.30;;;;;;;15.18;100.00;40522.50;5078070;28;20110;-67
2021/08/08 05:42:37;;;;;;;6.07;3.17;;;;;;;15.23;100.00;32913.19;5079064;28;20206;-67
2021/08/08 05:45:04;;;;;;;8.77;3.00;;;;;;;15.32;100.00;24992.03;5073530;28;20212;-67
2021/08/08 05:47:30;;;;;;;7.77;3.00;;;;;;;15.33;100.00;28623.09;5079366;28;20184;-67
2021/08/08 05:49:55;;;;;;;7.97;2.53;;;;;;;15.43;100.00;23018.44;5078351;28;20408;-67
2021/08/08 05:52:21;;;;;;;4.53;2.50;;;;;;;15.47;100.00;12484.72;5078097;28;20032;-67
2021/08/08 05:54:46;;;;;;;6.50;2.23;;;;;;;15.48;100.00;3949.34;5078493;28;20028;-67
2021/08/08 05:57:12;;;;;;;8.73;3.40;;;;;;;15.48;100.00;3293.69;5079219;28;20115;-67
2021/08/08 05:59:37;;;;;;;9.07;2.90;;;;;;;15.49;100.00;-3582.84;5080563;28;20016;-67
2021/08/08 06:02:03;;;;;;;9.83;3.63;;;;;;;15.57;100.00;-15548.13;5082510;28;20261;-67
2021/08/08 06:04:28;;;;;;;7.20;3.40;;;;;;;15.61;100.00;-18540.03;5082262;28;20111;-67
2021/08/08 06:06:54;;;;;;;3.60;2.03;;;;;;;15.59;100.00;-19571.72;5082912;28;20028;-67
2021/08/08 06:09:19;;;;;;;7.93;2.97;;;;;;;15.56;100.00;-19182.31;5082101;28;20039;-68
2021/08/08 06:11:45;;;;;;;5.37;2.43;;;;;;;15.48;100.00;-8159.22;5082821;28;20024;-67
2021/08/08 06:14:11;;;;;;;6.13;2.30;;;;;;;15.44;100.00;-8158.91;5073578;28;20032;-67
2021/08/08 06:16:36;;;;;;;5.70;2.77;;;;;;;15.38;100.00;8540.63;5082983;28;20040;-67
2021/08/08 06:19:02;;;;;;;7.53;3.07;;;;;;;15.37;100.00;6571.47;5072514;28;20275;-67
2021/08/08 06:21:27;;;;;;;6.57;3.47;;;;;;;15.35;100.00;19060.81;5082586;28;20082;-67
2021/08/08 06:23:53;;;;;;;8.17;2.97;;;;;;;15.29;100.00;28290.78;5074066;28;20024;-68
2021/08/08 06:26:18;;;;;;;7.60;3.50;;;;;;;15.27;100.00;20045.72;5082329;28;20027;-67
2021/08/08 06:28:43;;;;;;;6.93;3.10;;;;;;;15.22;100.00;17081.53;5080377;28;20490;-67
2021/08/08 06:31:09;;;;;;;9.23;3.50;;;;;;;15.11;100.00;28281.84;5082543;28;20024;-67
2021/08/08 06:33:34;;;;;;;11.20;3.60;;;;;;;15.07;100.00;40514.47;5082059;28;20024;-68
2021/08/08 06:36:00;;;;;;;9.07;3.47;;;;;;;15.06;100.00;39850.91;5082783;28;20299;-68
2021/08/08 06:38:25;;;;;;;9.37;4.13;;;;;;;15.04;100.00;42500.41;5082237;28;20058;-68
2021/08/08 06:40:51;;;;;;;8.57;3.37;;;;;;;15.03;100.00;42167.84;5082607;28;20498;-68
2021/08/08 06:43:16;;;;;;;12.60;3.97;;;;;;;15.05;100.00;39188.25;5077560;28;20260;-67
2021/08/08 06:45:42;;;;;;;6.60;2.90;;;;;;;15.09;100.00;34227.13;5081339;28;20107;-67
2021/08/08 06:48:08;;;;;;;9.57;4.30;;;;;;;15.24;100.00;23339.97;5081929;28;20038;-67
2021/08/08 06:50:33;;;;;;;11.50;3.20;;;;;;;15.35;100.00;16427.47;5082556;28;20032;-67
2021/08/08 06:52:59;;;;;;;6.97;3.00;;;;;;;15.51;100.00;17.53;5080436;28;20208;-67
2021/08/08 06:55:25;;;;;;;9.97;3.80;;;;;;;15.63;100.00;-17074.59;5081307;28;20162;-68
2021/08/08 06:57:50;;;;;;;11.50;3.63;;;;;;;15.82;100.00;-19577.75;5081763;28;20453;-67
2021/08/08 07:00:16;;;;;;;6.40;3.57;;;;;;;16.18;100.00;-19586.78;5079777;28;20320;-68
2021/08/08 07:02:42;;;;;;;7.00;2.57;;;;;;;16.04;100.00;-19583.25;5081221;28;20126;-67
2021/08/08 07:05:08;;;;;;;7.93;3.43;;;;;;;15.95;100.00;-19580.88;5080921;28;20760;-67
2021/08/08 07:07:34;;;;;;;7.90;3.43;;;;;;;15.98;100.00;-19581.69;5082324;28;20027;-67
2021/08/08 07:09:59;;;;;;;11.90;3.50;;;;;;;16.25;100.00;-19588.72;5068199;28;20397;-67
2021/08/08 07:12:25;;;;;;;10.60;3.77;;;;;;;16.38;100.00;-19592.13;5081889;28;20032;-68
2021/08/08 07:14:50;;;;;;;7.47;2.57;;;;;;;16.37;100.00;-19591.88;5073324;28;20644;-68
2021/08/08 07:17:16;;;;;;;7.60;3.67;;;;;;;16.58;100.00;-19597.09;5082242;28;20028;-69
2021/08/08 07:19:42;;;;;;;9.70;2.70;;;;;;;16.44;100.00;-19593.44;5080877;28;20149;-68
2021/08/08 07:22:08;;;;;;;9.17;3.20;;;;;;;16.39;100.00;-19592.41;5081870;28;20376;-68
2021/08/08 07:24:34;;;;;;;8.40;3.07;;;;;;;16.37;100.00;-19591.88;5071890;28;20039;-68
2021/08/08 07:26:59;;;;;;;8.17;2.43;;;;;;;16.23;100.00;-19588.22;5081619;28;20117;-68
2021/08/08 07:29:25;;;;;;;14.20;3.07;;;;;;;16.25;100.00;-19588.72;5080703;28;20055;-67
2021/08/08 07:31:50;;;;;;;9.73;2.70;;;;;;;16.27;100.00;-19589.25;5081526;28;20387;-68
2021/08/08 07:34:16;;;;;;;4.33;1.90;;;;;;;16.43;100.00;-19593.31;5076765;28;20250;-67
2021/08/08 07:36:42;;;;;;;12.87;3.20;;;;;;;16.48;100.00;-19594.63;5074174;28;20048;-68
2021/08/08 07:39:07;;;;;;;10.30;2.43;;;;;;;16.49;100.00;-19594.75;5075136;28;20034;-68
2021/08/08 07:41:33;;;;;;;15.97;3.57;;;;;;;16.44;100.00;-19593.44;5075905;28;20460;-67
2021/08/08 07:43:58;;;;;;;6.27;2.40;;;;;;;16.55;100.00;-19596.31;5075616;28;20266;-67
2021/08/08 07:46:24;;;;;;;8.33;2.70;;;;;;;16.63;100.00;-19598.41;5081144;28;20027;-68
2021/08/08 07:48:50;;;;;;;5.67;2.27;;;;;;;16.61;100.00;-19597.88;5077564;28;20035;-68
2021/08/08 07:51:16;;;;;;;9.37;2.40;;;;;;;16.92;100.00;-19605.84;5081119;28;20056;-68
2021/08/08 07:53:41;;;;;;;5.37;2.67;;;;;;;16.90;100.00;-19605.47;5080397;28;20082;-68
2021/08/08 07:56:07;;;;;;;5.37;2.30;;;;;;;16.86;100.00;-19604.28;5081161;28;20024;-67
2021/08/08 07:58:32;;;;;;;7.33;3.00;;;;;;;17.04;100.00;-19608.84;5079866;28;20196;-68
2021/08/08 08:00:58;;;;;;;10.07;2.90;;;;;;;17.05;100.00;-19609.25;5080867;28;20103;-68
2021/08/08 08:03:23;;;;;;;8.60;2.60;;;;;;;16.92;100.00;-19605.97;5080058;28;20056;-68
2021/08/08 08:05:49;;;;;;;7.70;2.80;;;;;;;17.09;100.00;-19610.28;5080787;28;20027;-68
2021/08/08 08:08:14;;;;;;;9.47;3.03;;;;;;;17.21;100.00;-19613.28;5077241;28;20604;-68
2021/08/08 08:10:40;;;;;;;7.40;2.47;;;;;;;17.18;100.00;-19612.50;5071387;28;20042;-68
2021/08/08 08:13:06;;;;;;;6.83;2.73;;;;;;;17.17;100.00;-19612.38;5079945;28;20063;-68
2021/08/08 08:15:31;;;;;;;8.20;2.80;;;;;;;17.09;100.00;-19610.16;5080020;28;20166;-68
2021/08/08 08:17:57;;;;;;;6.77;2.20;;;;;;;17.17;100.00;-19612.25;5079369;28;20051;-68
2021/08/08 08:20:23;;;;;;;10.27;3.10;;;;;;;17.56;100.00;-19622.44;5071303;28;20526;-68
2021/08/08 08:22:49;;;;;;;7.77;2.53;;;;;;;17.46;100.00;-19619.81;5079237;28;20496;-68
2021/08/08 08:25:15;;;;;;;8.27;2.40;;;;;;;17.48;100.00;-19620.34;5079929;28;20163;-68
2021/08/08 08:27:41;;;;;;;7.30;2.30;;;;;;;18.16;100.00;-19637.81;5080360;28;20028;-69
2021/08/08 08:30:08;;;;;;;7.87;2.57;;;;;;;17.90;100.00;-19631.03;5071645;28;20028;-68
2021/08/08 08:32:33;;;;;;;7.37;2.47;;;;;;;17.74;100.00;-19627.00;5080600;28;20035;-68
2021/08/08 08:35:02;;;;;;;10.23;2.40;;;;;;;17.89;100.00;-19630.78;5074095;28;20024;-68
2021/08/08 08:37:31;;;;;;;10.93;2.33;;;;;;;17.93;100.00;-19631.81;5079947;28;20043;-68
2021/08/08 08:39:57;;;;;;;8.57;2.70;;;;;;;18.48;100.00;-19645.91;5074846;28;20112;-69
2021/08/08 08:42:26;;;;;;;10.23;2.90;;;;;;;19.65;100.00;-19675.84;5073646;28;20415;-72
2021/08/08 08:44:56;;;;;;;5.93;2.53;;;;;;;19.89;100.00;-19682.09;5073812;28;20546;-73
2021/08/08 08:47:23;;;;;;;9.75;2.65;;;;;;;19.16;100.00;-19663.22;5080321;28;20577;-69
2021/08/08 08:49:54;;;;;;;6.63;1.92;;;;;;;18.46;100.00;-19645.38;5077669;28;20274;-69
2021/08/08 08:52:22;;;;;;;6.50;2.10;;;;;;;18.18;100.00;-19638.09;5080216;28;20082;-69
2021/08/08 08:54:48;;;;;;;8.80;2.63;;;;;;;18.33;100.00;-19642.00;5078214;28;20027;-68
2021/08/08 08:57:15;;;;;;;9.02;2.40;;;;;;;18.08;100.00;-19635.59;5078970;28;20104;-68
2021/08/08 08:59:41;;;;;;;7.15;2.38;;;;;;;17.85;100.00;-19629.75;5076990;28;20043;-69
2021/08/08 09:02:07;;;;;;;5.03;1.88;;;;;;;18.07;100.00;-19635.47;5079525;28;20102;-68
2021/08/08 09:04:32;;;;;;;5.10;2.10;;;;;;;18.08;100.00;-19635.72;5078972;28;20051;-69
2021/08/08 09:06:59;;;;;;;7.68;2.72;;;;;;;18.50;100.00;-19646.41;5079876;28;20024;-69
2021/08/08 09:09:24;;;;;;;7.38;2.20;;;;;;;18.25;100.00;-19640.03;5075986;28;20498;-69
2021/08/08 09:11:51;;;;;;;8.90;2.30;;;;;;;19.13;100.00;-19662.56;5079981;28;20145;-70
2021/08/08 09:14:17;;;;;;;7.32;2.38;;;;;;;19.01;100.00;-19659.44;5067771;28;20492;-69
2021/08/08 09:16:53;;;;;;;3.63;1.38;;;;;;;18.51;100.00;-19646.69;5079584;28;20031;-69
2021/08/08 09:19:27;;;;;;;4.95;2.20;;;;;;;18.79;100.00;-19653.72;5068525;28;20036;-68
2021/08/08 09:21:54;;;;;;;6.95;2.40;;;;;;;19.21;100.00;-19664.53;5079834;28;20035;-69
2021/08/08 09:24:33;;;;;;;5.78;2.08;;;;;;;19.09;100.00;-19661.53;5069932;28;20362;-68
2021/08/08 09:27:11;;;;;;;6.70;2.30;;;;;;;19.67;100.00;-19676.38;5079763;28;20024;-69
2021/08/08 09:29:40;;;;;;;6.00;2.35;;;;;;;18.88;100.00;-19656.06;5079044;28;20495;-69
2021/08/08 09:32:06;;;;;;;7.97;2.38;;;;;;;18.24;100.00;-19639.78;5079180;28;20034;-69
2021/08/08 09:34:41;;;;;;;8.73;3.47;;;;;;;18.44;100.00;-19644.84;5070854;28;20031;-69
2021/08/08 09:37:18;;;;;;;6.00;2.25;;;;;;;18.49;100.00;-19646.16;5078894;28;20548;-68
2021/08/08 09:39:48;;;;;;;8.05;2.47;;;;;;;18.30;100.00;-19641.22;5078549;28;20074;-68
2021/08/08 09:42:23;;;;;;;5.25;2.22;;;;;;;18.69;100.00;-19651.25;5079182;28;20081;-69
2021/08/08 09:45:06;;;;;;;16.30;2.65;;;;;;;19.36;100.00;-19668.44;5079007;28;20115;-69
2021/08/08 09:47:45;;;;;;;12.57;2.72;;;;;;;19.54;100.00;-19673.00;5079486;28;20036;-69
2021/08/08 09:50:16;;;;;;;8.43;1.77;;;;;;;19.09;100.00;-19661.53;5077626;28;20051;-69
2021/08/08 09:52:52;;;;;;;4.63;1.70;;;;;;;18.51;100.00;-19646.56;5079033;28;20081;-68
2021/08/08 09:55:39;;;;;;;7.88;2.28;;;;;;;18.58;100.00;-19648.38;5076896;28;20115;-69
2021/08/08 09:58:26;;;;;;;8.10;2.05;;;;;;;18.83;100.00;-19654.75;5078229;28;20419;-69
2021/08/08 10:00:59;;;;;;;5.90;1.67;;;;;;;19.00;100.00;-19659.19;5079325;28;20059;-68
2021/08/08 10:03:25;;;;;;;7.13;2.00;;;;;;;18.91;100.00;-19656.84;5078039;28;20086;-69
2021/08/08 10:05:54;;;;;;;11.40;2.58;;;;;;;19.20;100.00;-19664.28;5079108;28;20060;-69
2021/08/08 10:08:21;;;;;;;9.98;2.58;;;;;;;19.26;100.00;-19665.97;5075082;28;20048;-69
2021/08/08 10:10:51;;;;;;;7.25;2.42;;;;;;;19.10;100.00;-19661.78;5071292;28;20016;-69
2021/08/08 10:13:43;;;;;;;6.43;2.20;;;;;;;19.31;100.00;-19667.25;5075260;28;20260;-69
2021/08/08 10:16:13;;;;;;;6.07;2.10;;;;;;;19.83;100.00;-19680.53;5060771;28;20028;-68
2021/08/08 10:18:42;;;;;;;4.45;1.98;;;;;;;19.59;100.00;-19674.44;5069001;28;20028;-69
2021/08/08 10:21:09;;;;;;;6.38;1.90;;;;;;;19.26;100.00;-19665.97;5075935;28;20280;-69
2021/08/08 10:23:36;;;;;;;8.77;2.20;;;;;;;19.44;100.00;-19670.38;5073968;28;20561;-69
2021/08/08 10:26:02;;;;;;;7.10;2.20;;;;;;;20.09;100.00;-19687.03;5079125;28;20032;-68
2021/08/08 10:28:28;;;;;;;8.18;2.10;;;;;;;20.16;100.00;-19688.88;5074867;28;20028;-68
2021/08/08 10:30:58;;;;;;;5.70;2.15;;;;;;;20.45;100.00;-19696.28;5075185;28;20032;-69
2021/08/08 10:33:23;;;;;;;3.92;1.52;;;;;;;20.31;100.00;-19692.75;5074872;28;20024;-69
2021/08/08 10:35:49;;;;;;;7.57;1.83;;;;;;;20.28;100.00;-19691.84;5076517;28;20423;-69
2021/08/08 10:38:15;;;;;;;5.63;2.25;;;;;;;19.77;100.00;-19678.97;5067811;28;20032;-69
2021/08/08 10:40:44;;;;;;;4.35;1.80;;;;;;;19.49;100.00;-19671.69;5075215;28;20306;-69
2021/08/08 10:43:21;;;;;;;7.13;2.10;;;;;;;19.17;100.00;-19663.63;5065355;28;20303;-69
2021/08/08 10:45:47;;;;;;;6.13;1.80;;;;;;;19.01;100.00;-19659.44;5075672;28;20039;-68
2021/08/08 10:48:14;;;;;;;7.32;2.28;;;;;;;18.79;100.00;-19653.84;5072248;28;20073;-68
2021/08/08 10:50:48;;;;;;;9.60;2.55;;;;;;;18.40;100.00;-19643.81;5076142;28;20016;-68
2021/08/08 10:53:27;;;;;;;6.20;1.80;;;;;;;18.23;100.00;-19639.38;5078974;28;20127;-68
2021/08/08 10:56:07;;;;;;;9.13;1.97;;;;;;;18.28;100.00;-19640.69;5079670;28;20039;-69
2021/08/08 10:58:34;;;;;;;7.07;1.90;;;;;;;18.58;100.00;-19648.38;5078915;28;20093;-68
2021/08/08 11:01:01;;;;;;;13.15;2.10;;;;;;;19.43;100.00;-19670.13;5078849;28;20028;-68
2021/08/08 11:03:26;;;;;;;6.13;2.08;;;;;;;20.04;100.00;-19685.75;5079079;28;20044;-68
2021/08/08 11:05:52;;;;;;;7.45;1.40;;;;;;;20.51;100.00;-19697.84;5078588;28;20148;-69
2021/08/08 11:08:21;;;;;;;4.88;1.55;;;;;;;20.38;100.00;-19694.44;5075685;28;20136;-69
2021/08/08 11:10:47;;;;;;;3.03;1.40;;;;;;;19.79;100.00;-19679.50;5078372;28;20347;-68
2021/08/08 11:13:24;;;;;;;6.80;1.60;;;;;;;19.97;100.00;-19684.06;5075436;28;20510;-69
2021/08/08 11:15:51;;;;;;;5.85;1.83;;;;;;;20.00;100.00;-19684.72;5079496;28;20472;-69
2021/08/08 11:18:16;;;;;;;4.93;1.48;;;;;;;19.76;100.00;-19678.72;5077658;28;20645;-69
2021/08/08 11:20:43;;;;;;;7.13;2.13;;;;;;;19.81;100.00;-19680.03;5079720;28;20051;-69
2021/08/08 11:23:09;;;;;;;5.88;1.48;;;;;;;19.65;100.00;-19675.72;5078468;28;20745;-68